Time;durP1;ratioP1;P1;durP2;ratioP2;P2;SDS_P1;SDS_P2;PMS_P1;PMS_P2;Temp;Humidity;BMP_temperature;BMP_pressure;BME280_temperature;BME280_humidity;BME280_pressure;Samples;Min_cycle;Max_cycle;Signal;HPM_P1;HPM_P2
2022/06/13 00:00:21;;;;;;;5.45;1.95;;;;;;;21.82;48.45;101986.56;5076086;28;20027;-74
2022/06/13 00:02:46;;;;;;;5.05;1.90;;;;;;;21.81;48.32;101981.38;5072673;28;20035;-74
2022/06/13 00:05:13;;;;;;;4.50;1.88;;;;;;;21.80;48.43;101980.56;5073489;28;20029;-74
2022/06/13 00:07:38;;;;;;;4.72;1.75;;;;;;;21.81;48.32;101976.06;5073547;28;20028;-74
2022/06/13 00:10:05;;;;;;;4.25;1.48;;;;;;;21.79;48.21;101970.91;5072464;28;20028;-74
2022/06/13 00:12:30;;;;;;;4.38;1.90;;;;;;;21.78;48.45;101976.31;5072799;28;20028;-73
2022/06/13 00:14:55;;;;;;;4.18;1.90;;;;;;;21.78;48.43;101971.00;5072947;28;20044;-74
2022/06/13 00:17:24;;;;;;;3.35;1.55;;;;;;;21.76;48.29;101968.47;5072433;28;20468;-74
2022/06/13 00:19:52;;;;;;;3.60;1.60;;;;;;;21.77;48.10;101964.88;5072934;28;20170;-75
2022/06/13 00:22:18;;;;;;;5.28;1.95;;;;;;;21.76;48.37;101965.00;5072335;28;20032;-75
2022/06/13 00:24:44;;;;;;;5.00;1.70;;;;;;;21.76;48.28;101965.00;5072500;28;20488;-74
2022/06/13 00:27:10;;;;;;;3.72;1.70;;;;;;;21.75;48.34;101958.84;5072480;28;20059;-74
2022/06/13 00:29:36;;;;;;;4.57;1.50;;;;;;;21.74;48.28;101960.63;5071726;28;20028;-75
2022/06/13 00:32:02;;;;;;;5.13;1.70;;;;;;;21.72;48.44;101954.63;5072773;28;20021;-75
2022/06/13 00:34:27;;;;;;;4.93;1.50;;;;;;;21.72;48.35;101957.28;5072932;28;20575;-74
2022/06/13 00:36:53;;;;;;;4.68;1.70;;;;;;;21.72;48.21;101956.44;5074560;28;20021;-75
2022/06/13 00:39:18;;;;;;;5.35;2.00;;;;;;;21.71;48.43;101952.97;5078490;28;20028;-74
2022/06/13 00:41:43;;;;;;;5.45;1.70;;;;;;;21.71;48.33;101954.75;5078643;28;20033;-75
2022/06/13 00:44:34;;;;;;;5.05;2.00;;;;;;;21.69;48.23;101946.91;5077899;28;20028;-75
2022/06/13 00:47:00;;;;;;;3.90;1.50;;;;;;;21.68;48.18;101947.88;5078140;28;20484;-75
2022/06/13 00:49:44;;;;;;;5.22;1.92;;;;;;;21.69;48.15;101951.38;5076733;28;20028;-74
2022/06/13 00:52:17;;;;;;;4.75;1.92;;;;;;;21.68;48.24;101950.53;5075087;28;20036;-75
2022/06/13 00:54:45;;;;;;;4.88;2.03;;;;;;;21.67;48.32;101943.53;5073322;28;20033;-75
2022/06/13 00:57:18;;;;;;;3.40;1.60;;;;;;;21.67;48.27;101943.53;5071796;28;20031;-75
2022/06/13 00:59:45;;;;;;;5.28;1.77;;;;;;;21.66;48.25;101951.63;5072700;28;20028;-74
2022/06/13 01:02:10;;;;;;;4.75;1.77;;;;;;;21.65;48.30;101950.78;5072401;28;20025;-75
2022/06/13 01:04:37;;;;;;;5.35;1.92;;;;;;;21.66;48.22;101954.28;5072223;28;20043;-74
2022/06/13 01:07:03;;;;;;;3.28;1.52;;;;;;;21.65;48.30;101950.78;5072233;28;20060;-75
2022/06/13 01:12:14;;;;;;;5.38;1.83;;;;;;;21.63;48.07;101943.91;5071655;28;20502;-75
2022/06/13 01:15:03;;;;;;;4.18;1.75;;;;;;;21.60;48.16;101937.00;5072519;28;20095;-75
2022/06/13 01:17:35;;;;;;;4.38;1.70;;;;;;;21.61;48.37;101951.97;5075810;28;20032;-74
2022/06/13 01:20:18;;;;;;;6.63;2.25;;;;;;;21.61;48.18;101948.50;5075176;28;20021;-74
2022/06/13 01:23:12;;;;;;;4.60;2.10;;;;;;;21.60;48.23;101949.44;5076192;28;20032;-74
2022/06/13 01:26:14;;;;;;;5.00;1.90;;;;;;;21.58;48.11;101938.97;5075293;28;20052;-74
2022/06/13 01:29:00;;;;;;;5.00;1.90;;;;;;;21.59;48.04;101939.78;5075844;28;20120;-74
2022/06/13 01:31:37;;;;;;;4.82;2.05;;;;;;;21.58;48.37;101941.59;5075696;28;20021;-75
2022/06/13 01:34:15;;;;;;;4.82;1.67;;;;;;;21.57;48.40;101937.28;5075252;28;20056;-74
2022/06/13 01:36:50;;;;;;;6.57;1.92;;;;;;;21.57;48.04;101934.63;5075841;28;20024;-75
2022/06/13 01:39:47;;;;;;;4.80;1.58;;;;;;;21.56;48.01;101923.16;5075629;28;20020;-75
2022/06/13 01:42:49;;;;;;;4.63;1.70;;;;;;;21.56;48.26;101930.28;5075093;28;20464;-74
2022/06/13 01:45:40;;;;;;;3.90;1.88;;;;;;;21.54;48.06;101925.09;5045163;28;20052;-74
2022/06/13 01:48:26;;;;;;;3.50;1.75;;;;;;;21.55;48.09;101918.84;5074866;28;20035;-75
2022/06/13 01:51:10;;;;;;;6.13;2.20;;;;;;;21.54;48.30;101927.75;5075671;28;20036;-74
2022/06/13 01:53:49;;;;;;;7.43;1.95;;;;;;;21.53;48.31;101920.75;5075212;28;20024;-74
2022/06/13 01:56:19;;;;;;;3.85;1.77;;;;;;;21.53;48.33;101922.56;5075241;28;20356;-74
2022/06/13 01:58:54;;;;;;;5.10;1.98;;;;;;;21.52;48.50;101926.19;5075545;28;20055;-75
2022/06/13 02:01:43;;;;;;;3.47;1.63;;;;;;;21.52;48.31;101926.19;5074724;28;20032;-74
2022/06/13 02:04:15;;;;;;;4.38;1.88;;;;;;;21.51;48.28;101929.81;5075187;28;20376;-74
2022/06/13 02:06:47;;;;;;;4.07;1.50;;;;;;;21.51;48.35;101927.16;5076259;28;20080;-75
2022/06/13 02:09:19;;;;;;;4.85;1.88;;;;;;;21.50;48.24;101925.47;5073976;28;20028;-75
2022/06/13 02:11:51;;;;;;;3.95;2.10;;;;;;;21.49;48.42;101921.09;5074852;28;20028;-74
2022/06/13 02:14:33;;;;;;;5.40;1.92;;;;;;;21.50;48.20;101933.41;5074459;28;20024;-74
2022/06/13 02:17:01;;;;;;;4.53;1.90;;;;;;;21.49;48.23;101929.94;5074938;28;20032;-75
2022/06/13 02:19:34;;;;;;;4.93;2.00;;;;;;;21.49;48.39;101934.38;5074619;28;20031;-75
2022/06/13 02:22:05;;;;;;;6.25;2.10;;;;;;;21.48;48.53;101938.84;5074479;28;20104;-74
2022/06/13 02:24:36;;;;;;;4.68;1.73;;;;;;;21.45;48.31;101928.44;5074150;28;20536;-75
2022/06/13 02:27:06;;;;;;;4.80;1.80;;;;;;;21.47;48.35;101937.09;5073971;28;20048;-75
2022/06/13 02:29:46;;;;;;;4.47;1.98;;;;;;;21.48;48.39;101936.19;5073741;28;20419;-75
2022/06/13 02:32:20;;;;;;;6.05;2.20;;;;;;;21.47;48.50;101930.97;5073963;28;20020;-75
2022/06/13 02:34:52;;;;;;;4.70;1.83;;;;;;;21.46;48.24;101927.50;5074568;28;20380;-75
2022/06/13 02:37:29;;;;;;;4.60;2.00;;;;;;;21.46;48.45;101932.78;5073584;28;20036;-75
2022/06/13 02:40:08;;;;;;;4.13;1.70;;;;;;;21.45;48.40;101932.91;5074659;28;20098;-75
2022/06/13 02:42:48;;;;;;;4.95;2.10;;;;;;;21.45;48.46;101930.25;5074285;28;20033;-75
2022/06/13 02:45:23;;;;;;;4.07;1.88;;;;;;;21.44;48.28;101924.09;5074174;28;20031;-74
2022/06/13 02:47:52;;;;;;;5.38;2.03;;;;;;;21.44;48.43;101917.94;5074364;28;20067;-74
2022/06/13 02:50:27;;;;;;;5.28;2.15;;;;;;;21.44;48.38;101917.94;5073467;28;20115;-74
2022/06/13 02:53:09;;;;;;;6.15;2.25;;;;;;;21.44;48.38;101920.59;5074107;28;20036;-75
2022/06/13 02:55:42;;;;;;;3.78;1.77;;;;;;;21.42;48.54;101923.38;5073107;28;20045;-74
2022/06/13 02:58:33;;;;;;;5.38;2.17;;;;;;;21.43;48.43;101918.91;5073504;28;20028;-74
2022/06/13 03:01:07;;;;;;;5.93;2.00;;;;;;;21.42;48.34;101920.72;5074105;28;20132;-74
2022/06/13 03:03:59;;;;;;;4.57;1.90;;;;;;;21.41;48.54;101926.16;5073645;28;20024;-74
2022/06/13 03:06:35;;;;;;;6.05;2.08;;;;;;;21.41;48.19;101918.19;5073404;28;20097;-74
2022/06/13 03:09:11;;;;;;;5.30;2.20;;;;;;;21.41;48.27;101916.38;5073875;28;20048;-74
2022/06/13 03:11:44;;;;;;;7.13;2.33;;;;;;;21.40;48.30;101913.88;5073350;28;20112;-74
2022/06/13 03:14:26;;;;;;;4.63;2.15;;;;;;;21.38;48.33;101914.81;5073290;28;20044;-75
2022/06/13 03:17:00;;;;;;;4.25;1.92;;;;;;;21.40;48.45;101921.81;5073860;28;20065;-74
2022/06/13 03:19:31;;;;;;;5.38;2.22;;;;;;;21.40;48.48;101924.47;5072461;28;20031;-75
2022/06/13 03:22:05;;;;;;;5.40;2.30;;;;;;;21.37;48.49;101926.38;5072321;28;20036;-75
2022/06/13 03:24:54;;;;;;;5.60;1.85;;;;;;;21.38;48.43;101927.25;5073116;28;20413;-75
2022/06/13 03:27:27;;;;;;;4.88;1.98;;;;;;;21.38;48.36;101922.78;5072699;28;20074;-75
2022/06/13 03:30:13;;;;;;;5.22;1.92;;;;;;;21.38;48.53;101927.25;5073594;28;20055;-75
2022/06/13 03:35:38;;;;;;;5.68;2.05;;;;;;;21.36;48.45;101922.06;5073366;28;20082;-74
2022/06/13 03:38:12;;;;;;;6.68;2.10;;;;;;;21.37;48.43;101930.84;5072462;28;20021;-74
2022/06/13 03:40:41;;;;;;;4.45;1.90;;;;;;;21.36;48.40;101926.50;5072652;28;20032;-74
2022/06/13 03:43:25;;;;;;;7.63;2.10;;;;;;;21.34;48.47;101942.53;5073283;28;20108;-74
2022/06/13 03:46:16;;;;;;;5.77;2.37;;;;;;;21.35;48.44;101946.03;5073182;28;20559;-74
2022/06/13 03:48:57;;;;;;;5.93;2.20;;;;;;;21.33;48.30;101946.16;5073350;28;20082;-74
2022/06/13 03:51:31;;;;;;;5.03;2.20;;;;;;;21.30;48.36;101941.09;5072814;28;20035;-74
2022/06/13 03:54:08;;;;;;;5.32;2.17;;;;;;;21.33;48.42;101945.31;5072509;28;20038;-74
2022/06/13 03:56:41;;;;;;;5.18;2.38;;;;;;;21.33;48.38;101954.13;5072853;28;20024;-74
2022/06/13 03:59:22;;;;;;;4.88;2.05;;;;;;;21.32;48.53;101952.41;5073285;28;20029;-74
2022/06/13 04:01:53;;;;;;;6.50;2.28;;;;;;;21.31;48.55;101948.06;5072271;28;20024;-74
2022/06/13 04:04:24;;;;;;;6.25;2.28;;;;;;;21.31;48.53;101948.06;5072780;28;20017;-74
2022/06/13 04:06:50;;;;;;;4.32;1.92;;;;;;;21.30;48.55;101950.84;5072932;28;20553;-75
2022/06/13 04:09:22;;;;;;;4.85;2.10;;;;;;;21.30;48.32;101956.13;5071919;28;20026;-74
2022/06/13 04:12:15;;;;;;;5.00;2.30;;;;;;;21.30;48.69;101950.84;5073191;28;20039;-74
2022/06/13 04:14:45;;;;;;;4.80;2.17;;;;;;;21.30;48.61;101953.50;5072413;28;20078;-74
2022/06/13 04:17:20;;;;;;;5.30;2.17;;;;;;;21.29;48.54;101959.78;5072220;28;20388;-74
2022/06/13 04:19:58;;;;;;;6.43;2.40;;;;;;;21.28;48.38;101956.25;5072829;28;20125;-74
2022/06/13 04:22:42;;;;;;;4.75;2.13;;;;;;;21.28;48.59;101958.91;5071568;28;20368;-74
2022/06/13 04:25:36;;;;;;;5.65;2.08;;;;;;;21.27;48.49;101962.53;5072544;28;20170;-74
2022/06/13 04:28:22;;;;;;;5.63;2.22;;;;;;;21.27;48.53;101966.97;5072829;28;20032;-74
2022/06/13 04:30:50;;;;;;;6.78;2.45;;;;;;;21.26;48.10;101968.81;5072388;28;20090;-74
2022/06/13 04:33:21;;;;;;;6.20;2.33;;;;;;;21.26;48.53;101971.44;5072238;28;20029;-74
2022/06/13 04:35:48;;;;;;;5.57;2.63;;;;;;;21.26;48.60;101967.97;5072119;28;20024;-74
2022/06/13 04:38:15;;;;;;;3.95;1.92;;;;;;;21.25;48.70;101969.75;5072088;28;20085;-73
2022/06/13 04:40:46;;;;;;;5.20;2.17;;;;;;;21.25;48.39;101974.22;5072497;28;20490;-74
2022/06/13 04:43:13;;;;;;;5.90;2.33;;;;;;;21.25;48.47;101976.88;5071646;28;20021;-74
2022/06/13 04:45:50;;;;;;;6.90;2.75;;;;;;;21.25;48.64;101975.06;5072126;28;20021;-74
2022/06/13 04:48:16;;;;;;;6.28;2.17;;;;;;;21.25;48.54;101979.53;5071930;28;20029;-74
2022/06/13 04:50:45;;;;;;;4.65;2.28;;;;;;;21.25;48.51;101979.53;5075689;28;20024;-75
2022/06/13 04:53:17;;;;;;;4.22;2.10;;;;;;;21.25;48.44;101979.53;5078425;28;20020;-74
2022/06/13 04:55:46;;;;;;;5.38;2.28;;;;;;;21.23;48.72;101982.28;5078808;28;20043;-75
2022/06/13 04:58:27;;;;;;;5.95;2.15;;;;;;;21.23;48.67;101982.28;5078988;28;20059;-76
2022/06/13 05:01:04;;;;;;;4.63;2.33;;;;;;;21.24;48.59;101983.13;5076334;28;20020;-74
2022/06/13 05:03:35;;;;;;;4.10;2.10;;;;;;;21.24;48.67;101983.13;5075622;28;20131;-74
2022/06/13 05:06:05;;;;;;;6.35;2.30;;;;;;;21.24;48.42;101993.72;5075872;28;20518;-74
2022/06/13 05:08:34;;;;;;;6.10;2.40;;;;;;;21.22;48.66;101985.91;5075760;28;20034;-74
2022/06/13 05:11:13;;;;;;;4.95;2.00;;;;;;;21.22;48.47;101996.53;5075454;28;20055;-74
2022/06/13 05:13:42;;;;;;;4.47;2.05;;;;;;;21.22;48.62;102001.84;5075940;28;20028;-74
2022/06/13 05:16:40;;;;;;;5.57;2.10;;;;;;;21.22;48.53;101996.53;5075932;28;20024;-74
2022/06/13 05:19:11;;;;;;;5.35;2.17;;;;;;;21.22;48.81;101993.00;5075139;28;20032;-74
2022/06/13 05:21:59;;;;;;;5.38;2.17;;;;;;;21.21;48.80;101997.47;5075723;28;20490;-74
2022/06/13 05:25:05;;;;;;;5.47;2.22;;;;;;;21.20;48.82;102001.94;5075029;28;20029;-74
2022/06/13 05:27:30;;;;;;;5.35;2.22;;;;;;;21.21;48.71;102008.09;5074984;28;20045;-74
2022/06/13 05:29:55;;;;;;;6.10;2.13;;;;;;;21.20;48.81;102006.38;5075569;28;20376;-74
2022/06/13 05:32:23;;;;;;;5.80;1.92;;;;;;;21.20;48.92;102009.03;5074684;28;20024;-74
2022/06/13 05:34:49;;;;;;;4.93;2.20;;;;;;;21.20;48.90;102017.84;5075766;28;20040;-74
2022/06/13 05:37:16;;;;;;;4.68;2.30;;;;;;;21.20;49.08;102016.97;5075331;28;20025;-74
2022/06/13 05:39:43;;;;;;;4.80;2.20;;;;;;;21.20;49.07;102019.63;5074640;28;20379;-74
2022/06/13 05:42:13;;;;;;;11.95;3.03;;;;;;;21.20;49.12;102023.16;5074259;28;20387;-74
2022/06/13 05:44:39;;;;;;;5.60;2.15;;;;;;;21.19;48.90;102012.66;5075347;28;20031;-74
2022/06/13 05:47:04;;;;;;;4.93;2.10;;;;;;;21.20;48.88;102022.28;5074700;28;20036;-74
2022/06/13 05:49:30;;;;;;;5.35;2.70;;;;;;;21.18;48.84;102027.72;5075281;28;20120;-74
2022/06/13 05:51:55;;;;;;;7.25;2.10;;;;;;;21.19;49.22;102029.41;5075203;28;20490;-74
2022/06/13 05:54:20;;;;;;;6.50;2.28;;;;;;;21.19;49.14;102029.41;5074098;28;20035;-74
2022/06/13 05:56:46;;;;;;;7.45;2.50;;;;;;;21.19;49.10;102026.75;5075354;28;20112;-75
2022/06/13 05:59:11;;;;;;;6.90;2.03;;;;;;;21.19;49.25;102029.41;5074601;28;20027;-74
2022/06/13 06:01:36;;;;;;;5.50;2.20;;;;;;;21.21;49.37;102042.53;5073717;28;20040;-73
2022/06/13 06:04:05;;;;;;;4.97;2.25;;;;;;;21.20;49.38;102052.31;5075221;28;20475;-74
2022/06/13 06:06:33;;;;;;;5.72;2.63;;;;;;;21.20;49.21;102049.66;5074796;28;20051;-74
2022/06/13 06:08:59;;;;;;;9.10;2.03;;;;;;;21.20;48.84;102049.66;5074263;28;20021;-74
2022/06/13 06:11:28;;;;;;;5.72;2.67;;;;;;;21.19;49.44;102047.97;5074529;28;20032;-73
2022/06/13 06:13:54;;;;;;;7.30;2.22;;;;;;;21.22;49.33;102057.50;5074279;28;20025;-73
2022/06/13 06:16:22;;;;;;;5.90;2.53;;;;;;;21.22;49.48;102059.28;5074554;28;20020;-73
2022/06/13 06:18:48;;;;;;;9.77;2.38;;;;;;;21.24;49.16;102063.53;5074813;28;20090;-75
2022/06/13 06:21:14;;;;;;;6.28;2.70;;;;;;;21.23;49.21;102063.63;5073960;28;20025;-74
2022/06/13 06:23:42;;;;;;;6.47;2.30;;;;;;;21.23;49.23;102064.47;5074442;28;20021;-73
2022/06/13 06:26:09;;;;;;;9.93;2.25;;;;;;;21.22;49.44;102059.28;5074235;28;20075;-74
2022/06/13 06:28:38;;;;;;;15.90;2.72;;;;;;;21.25;49.26;102065.19;5074198;28;20024;-73
2022/06/13 06:31:06;;;;;;;7.70;2.20;;;;;;;21.24;49.26;102068.81;5074458;28;20067;-72
2022/06/13 06:33:32;;;;;;;7.72;2.15;;;;;;;21.23;49.13;102064.47;5074347;28;20070;-74
2022/06/13 06:35:58;;;;;;;7.53;2.80;;;;;;;21.23;49.22;102064.47;5073764;28;20020;-73
2022/06/13 06:38:26;;;;;;;6.45;2.55;;;;;;;21.25;49.04;102069.66;5074152;28;20064;-73
2022/06/13 06:40:52;;;;;;;6.22;2.58;;;;;;;21.25;48.98;102078.44;5074447;28;20032;-73
2022/06/13 06:43:18;;;;;;;5.60;2.22;;;;;;;21.26;49.13;102081.97;5073585;28;20021;-74
2022/06/13 06:45:43;;;;;;;6.80;2.42;;;;;;;21.26;49.22;102081.97;5074454;28;20017;-74
2022/06/13 06:48:19;;;;;;;6.78;2.40;;;;;;;21.26;48.87;102090.75;5074071;28;20093;-76
2022/06/13 06:50:46;;;;;;;6.75;1.98;;;;;;;21.27;48.97;102088.94;5073484;28;20021;-76
2022/06/13 06:53:12;;;;;;;7.22;2.22;;;;;;;21.27;49.07;102097.75;5073832;28;20132;-76
2022/06/13 07:01:08;;;;;;;5.85;2.20;;;;;;;21.28;48.88;102096.78;5076249;28;20035;-74
2022/06/13 07:03:34;;;;;;;5.03;1.98;;;;;;;21.28;48.95;102096.78;5073483;28;20032;-72
2022/06/13 07:05:59;;;;;;;5.22;2.05;;;;;;;21.28;48.95;102098.59;5073925;28;20047;-73
2022/06/13 07:08:25;;;;;;;4.95;2.00;;;;;;;21.29;48.77;102098.47;5073642;28;20102;-73
2022/06/13 07:10:50;;;;;;;4.32;1.98;;;;;;;21.29;48.78;102095.81;5073197;28;20103;-75
2022/06/13 07:13:18;;;;;;;6.13;1.77;;;;;;;21.29;48.91;102092.34;5073531;28;20024;-75
2022/06/13 07:15:44;;;;;;;5.43;2.00;;;;;;;21.31;48.77;102091.25;5073637;28;20020;-75
2022/06/13 07:18:09;;;;;;;6.15;2.17;;;;;;;21.32;48.86;102092.13;5072476;28;20035;-76
2022/06/13 07:20:36;;;;;;;6.70;1.95;;;;;;;21.32;48.91;102097.41;5073868;28;20024;-74
2022/06/13 07:23:02;;;;;;;5.95;2.28;;;;;;;21.32;48.63;102098.25;5073706;28;20072;-76
2022/06/13 07:25:30;;;;;;;5.00;1.80;;;;;;;21.33;48.61;102094.66;5072408;28;20020;-75
2022/06/13 07:27:55;;;;;;;6.88;1.85;;;;;;;21.30;48.61;102092.22;5073534;28;20029;-74
2022/06/13 07:30:23;;;;;;;5.60;1.80;;;;;;;21.35;48.50;102103.31;5073258;28;20369;-73
2022/06/13 07:32:50;;;;;;;5.97;1.70;;;;;;;21.36;48.41;102106.81;5072565;28;20033;-75
2022/06/13 07:35:20;;;;;;;5.22;1.98;;;;;;;21.37;48.59;102108.50;5072940;28;20079;-74
2022/06/13 07:40:30;;;;;;;5.43;1.77;;;;;;;21.36;48.59;102110.34;5072992;28;20070;-72
2022/06/13 07:42:59;;;;;;;4.07;1.70;;;;;;;21.37;48.41;102108.50;5073254;28;20434;-72
2022/06/13 07:45:29;;;;;;;4.65;1.52;;;;;;;21.36;48.25;102107.69;5072278;28;20464;-73
2022/06/13 07:47:55;;;;;;;4.32;1.70;;;;;;;21.36;48.46;102106.81;5072836;28;20036;-72
2022/06/13 07:50:23;;;;;;;4.80;1.45;;;;;;;21.37;48.36;102105.88;5073068;28;20024;-72
2022/06/13 07:52:50;;;;;;;5.63;2.05;;;;;;;21.38;48.45;102107.56;5072640;28;20024;-72
2022/06/13 07:55:15;;;;;;;4.78;1.85;;;;;;;21.40;48.59;102115.41;5072336;28;20047;-73
2022/06/13 07:57:40;;;;;;;6.72;1.70;;;;;;;21.39;48.37;102117.19;5073034;28;20024;-73
2022/06/13 08:00:11;;;;;;;3.88;1.65;;;;;;;21.40;48.17;102126.00;5072156;28;20039;-73
2022/06/13 08:02:38;;;;;;;5.00;1.63;;;;;;;21.40;48.30;102128.66;5073176;28;20020;-73
2022/06/13 08:05:04;;;;;;;5.95;1.65;;;;;;;21.41;48.24;102128.53;5073031;28;20024;-73
2022/06/13 08:07:29;;;;;;;5.38;1.65;;;;;;;21.41;48.38;102127.69;5072118;28;20035;-73
2022/06/13 08:09:55;;;;;;;4.82;1.75;;;;;;;21.42;48.23;102134.69;5072920;28;20495;-73
2022/06/13 08:12:21;;;;;;;5.75;1.70;;;;;;;21.43;48.27;102133.72;5070847;28;20467;-73
2022/06/13 08:14:47;;;;;;;6.53;1.80;;;;;;;21.42;48.20;102140.00;5072000;28;20074;-73
2022/06/13 08:17:14;;;;;;;5.65;1.70;;;;;;;21.43;48.29;102141.66;5072586;28;20420;-73
2022/06/13 08:19:40;;;;;;;5.15;1.70;;;;;;;21.44;48.07;102146.03;5072988;28;20099;-73
2022/06/13 08:22:05;;;;;;;4.60;1.63;;;;;;;21.43;48.38;102141.66;5071957;28;20094;-73
2022/06/13 08:24:30;;;;;;;5.10;1.55;;;;;;;21.44;48.08;102146.84;5072045;28;20284;-73
2022/06/13 08:26:56;;;;;;;3.08;1.40;;;;;;;21.44;48.09;102144.19;5072576;28;20376;-73
2022/06/13 08:29:22;;;;;;;4.28;1.55;;;;;;;21.44;48.15;102144.19;5071679;28;20031;-72
2022/06/13 08:31:50;;;;;;;6.18;1.77;;;;;;;21.44;48.01;102149.50;5072943;28;20027;-71
2022/06/13 08:34:15;;;;;;;3.47;1.38;;;;;;;21.44;48.00;102146.84;5072403;28;20100;-71
2022/06/13 08:36:49;;;;;;;5.17;2.10;;;;;;;21.45;48.08;102155.69;5071905;28;20441;-71
2022/06/13 08:39:15;;;;;;;4.60;1.42;;;;;;;21.44;48.10;102154.81;5072348;28;20268;-71
2022/06/13 08:41:53;;;;;;;3.90;1.50;;;;;;;21.47;47.98;102164.34;5072013;28;20029;-71
2022/06/13 08:44:33;;;;;;;4.90;1.73;;;;;;;21.47;47.85;102162.53;5072111;28;20602;-71
2022/06/13 08:47:16;;;;;;;4.85;1.60;;;;;;;21.47;48.15;102164.34;5072323;28;20036;-71
2022/06/13 08:49:57;;;;;;;3.55;1.23;;;;;;;21.45;48.01;102161.81;5071649;28;20028;-71
2022/06/13 08:52:30;;;;;;;4.15;1.42;;;;;;;21.48;47.84;102166.06;5072314;28;20020;-74
2022/06/13 08:55:31;;;;;;;5.07;1.88;;;;;;;21.49;47.93;102162.47;5072720;28;20029;-72
2022/06/13 08:58:24;;;;;;;4.93;1.50;;;;;;;21.48;47.79;102158.97;5072287;28;20024;-72
2022/06/13 09:00:56;;;;;;;3.97;1.67;;;;;;;21.51;47.70;102171.16;5035300;28;20086;-73
2022/06/13 09:03:48;;;;;;;4.80;1.65;;;;;;;21.49;47.53;102171.28;5071834;28;20028;-73
2022/06/13 09:06:23;;;;;;;4.07;1.30;;;;;;;21.49;47.70;102170.41;5077413;28;20034;-74
2022/06/13 09:09:07;;;;;;;3.08;1.35;;;;;;;21.50;47.79;102178.25;5078310;28;20111;-74
2022/06/13 09:11:48;;;;;;;4.00;1.33;;;;;;;21.50;48.06;102172.13;5077384;28;20020;-73
2022/06/13 09:14:17;;;;;;;3.67;1.33;;;;;;;21.50;47.86;102172.94;5076059;28;20024;-75
2022/06/13 09:16:54;;;;;;;3.92;1.20;;;;;;;21.51;47.84;102187.09;5071677;28;20025;-73
2022/06/13 09:19:26;;;;;;;4.50;1.30;;;;;;;21.51;47.71;102187.09;5071709;28;20048;-74
2022/06/13 09:22:10;;;;;;;5.00;1.30;;;;;;;21.52;47.80;102196.72;5072232;28;20395;-76
2022/06/13 09:25:00;;;;;;;5.15;1.48;;;;;;;21.52;47.92;102192.28;5071484;28;20028;-75
2022/06/13 09:27:54;;;;;;;5.70;1.27;;;;;;;21.52;48.00;102194.91;5071151;28;20047;-73
2022/06/13 09:30:26;;;;;;;3.88;1.30;;;;;;;21.52;47.91;102196.72;5071886;28;20032;-74
2022/06/13 09:32:58;;;;;;;2.95;1.25;;;;;;;21.52;47.98;102202.00;5071469;28;20463;-73
2022/06/13 09:35:35;;;;;;;3.20;1.10;;;;;;;21.52;47.84;102199.38;5071785;28;20029;-75
2022/06/13 09:38:09;;;;;;;3.60;1.20;;;;;;;21.50;47.80;102196.00;5075121;28;20485;-75
2022/06/13 09:40:54;;;;;;;4.57;1.30;;;;;;;21.52;47.81;102200.22;5075761;28;20108;-75
2022/06/13 09:43:26;;;;;;;4.32;1.20;;;;;;;21.53;47.84;102211.69;5075291;28;20055;-73
2022/06/13 09:46:12;;;;;;;4.25;1.27;;;;;;;21.53;47.68;102211.69;5075746;28;20042;-73
2022/06/13 09:48:56;;;;;;;3.95;1.27;;;;;;;21.53;47.69;102217.81;5075876;28;20039;-74
2022/06/13 09:51:41;;;;;;;3.72;1.30;;;;;;;21.54;47.45;102222.16;5075302;28;20025;-74
2022/06/13 09:54:31;;;;;;;4.18;1.20;;;;;;;21.53;47.80;102217.81;5075188;28;20078;-74
2022/06/13 09:57:00;;;;;;;5.28;1.48;;;;;;;21.53;47.75;102217.81;5075547;28;20028;-74
2022/06/13 09:59:56;;;;;;;4.35;1.20;;;;;;;21.54;47.77;102219.53;5074969;28;20086;-74
2022/06/13 10:02:45;;;;;;;3.63;1.20;;;;;;;21.54;47.50;102221.34;5075056;28;20032;-74
2022/06/13 10:05:28;;;;;;;3.45;1.17;;;;;;;21.54;47.68;102224.81;5043568;28;20066;-74
2022/06/13 10:08:10;;;;;;;3.63;1.15;;;;;;;21.54;47.58;102219.53;5074435;28;20086;-74
2022/06/13 10:11:17;;;;;;;4.03;1.20;;;;;;;21.55;47.62;102223.00;5074931;28;20024;-74
2022/06/13 10:13:45;;;;;;;4.68;1.20;;;;;;;21.55;47.66;102225.66;5071149;28;20029;-74
2022/06/13 10:16:33;;;;;;;4.70;1.20;;;;;;;21.55;47.55;102225.66;5074905;28;20063;-74
2022/06/13 10:19:40;;;;;;;3.03;1.10;;;;;;;21.56;47.55;102224.72;5075086;28;20024;-74
2022/06/13 10:22:15;;;;;;;4.55;1.30;;;;;;;21.56;47.32;102224.72;5074085;28;20032;-72
2022/06/13 10:24:49;;;;;;;3.80;1.35;;;;;;;21.57;47.50;102229.06;5074940;28;20029;-72
2022/06/13 10:27:42;;;;;;;3.53;1.30;;;;;;;21.56;47.51;102222.91;5073745;28;20144;-72
2022/06/13 10:30:13;;;;;;;2.85;1.33;;;;;;;21.56;47.48;102214.94;5074643;28;20037;-71
2022/06/13 10:33:00;;;;;;;4.28;1.40;;;;;;;21.57;47.52;102223.75;5074523;28;20478;-72
2022/06/13 10:35:37;;;;;;;4.90;1.30;;;;;;;21.57;47.41;102229.06;5073652;28;20028;-71
2022/06/13 10:38:26;;;;;;;4.22;1.30;;;;;;;21.59;47.46;102221.84;5074630;28;20078;-72
2022/06/13 10:40:52;;;;;;;4.45;1.27;;;;;;;21.58;47.28;102216.63;5074758;28;20122;-73
2022/06/13 10:43:18;;;;;;;3.17;1.20;;;;;;;21.59;47.05;102227.13;5073728;28;20480;-72
2022/06/13 10:45:43;;;;;;;3.95;1.48;;;;;;;21.59;47.42;102224.47;5074472;28;20016;-72
2022/06/13 10:48:37;;;;;;;3.08;1.30;;;;;;;21.60;47.54;102228.81;5073125;28;20051;-72
2022/06/13 10:51:04;;;;;;;3.58;1.20;;;;;;;21.60;47.18;102228.81;5074161;28;20541;-71
2022/06/13 10:53:41;;;;;;;5.15;1.45;;;;;;;21.60;47.22;102227.97;5074074;28;20036;-71
2022/06/13 10:56:15;;;;;;;3.17;1.17;;;;;;;21.60;47.06;102226.16;5073467;28;20035;-72
2022/06/13 10:58:47;;;;;;;2.67;1.00;;;;;;;21.61;47.26;102224.38;5074147;28;20067;-72
2022/06/13 11:01:19;;;;;;;3.08;1.17;;;;;;;21.62;47.08;102231.34;5073568;28;20383;-72
2022/06/13 11:04:16;;;;;;;3.42;1.30;;;;;;;21.63;47.07;102238.34;5073185;28;20465;-72
2022/06/13 11:06:47;;;;;;;2.72;1.08;;;;;;;21.61;47.44;102234.97;5073758;28;20020;-73
2022/06/13 11:09:31;;;;;;;4.30;1.42;;;;;;;21.62;47.27;102232.22;5073179;28;20032;-73
2022/06/13 11:12:03;;;;;;;4.78;1.30;;;;;;;21.62;47.29;102234.00;5073974;28;20024;-73
2022/06/13 11:23:19;;;;;;;3.95;1.27;;;;;;;21.63;47.11;102249.81;5072812;28;20058;-73
2022/06/13 11:25:53;;;;;;;2.58;1.15;;;;;;;21.62;46.70;102242.81;5073159;28;20029;-73
2022/06/13 11:28:22;;;;;;;3.50;1.05;;;;;;;21.63;46.95;102239.19;5073079;28;20115;-73
2022/06/13 11:30:49;;;;;;;3.50;1.13;;;;;;;21.64;46.95;102246.19;5072680;28;20024;-73
2022/06/13 11:33:33;;;;;;;3.17;1.00;;;;;;;21.65;47.22;102242.59;5073340;28;20028;-72
2022/06/13 11:36:21;;;;;;;3.88;1.42;;;;;;;21.65;46.81;102239.94;5073448;28;20024;-72
2022/06/13 11:39:02;;;;;;;3.30;1.15;;;;;;;21.66;46.96;102236.31;5072499;28;20037;-72
2022/06/13 11:41:41;;;;;;;3.47;1.00;;;;;;;21.66;46.75;102233.66;5073039;28;20603;-75
2022/06/13 11:44:11;;;;;;;3.35;1.05;;;;;;;21.66;47.05;102241.63;5073291;28;20116;-73
2022/06/13 11:46:43;;;;;;;2.10;0.98;;;;;;;21.65;46.93;102234.63;5072866;28;20043;-73
2022/06/13 11:49:18;;;;;;;2.92;1.10;;;;;;;21.66;46.86;102241.63;5072807;28;20024;-74
2022/06/13 11:55:17;;;;;;;3.13;0.93;;;;;;;21.68;46.94;102241.50;5072404;28;20044;-74
2022/06/13 11:57:52;;;;;;;2.65;1.00;;;;;;;21.67;47.04;102242.50;5073022;28;20021;-75
2022/06/13 12:00:17;;;;;;;4.72;1.30;;;;;;;21.68;47.08;102236.19;5071660;28;20085;-72
2022/06/13 12:03:05;;;;;;;3.00;1.10;;;;;;;21.68;47.08;102237.06;5072876;28;20497;-74
2022/06/13 12:05:42;;;;;;;2.95;1.00;;;;;;;21.67;46.95;102240.66;5072000;28;20020;-75
2022/06/13 12:08:13;;;;;;;3.05;1.08;;;;;;;21.69;46.74;102240.56;5072896;28;20029;-74
2022/06/13 12:10:41;;;;;;;3.05;1.10;;;;;;;21.69;47.23;102236.09;5073045;28;20025;-74
2022/06/13 12:13:15;;;;;;;4.18;1.20;;;;;;;21.69;47.14;102233.44;5072217;28;20028;-76
2022/06/13 12:15:56;;;;;;;3.33;0.95;;;;;;;21.68;47.26;102245.03;5072916;28;20123;-75
2022/06/13 12:18:32;;;;;;;2.72;0.90;;;;;;;21.67;47.33;102251.28;5072468;28;20050;-75
2022/06/13 12:21:20;;;;;;;2.22;0.90;;;;;;;21.69;47.25;102256.47;5072211;28;20380;-76